createdAt,value
2019-05-02T00:00:54.907Z,49.40
2019-05-02T00:01:54.854Z,49.90
2019-05-02T00:02:54.845Z,51.80
2019-05-02T00:03:54.839Z,51.90
2019-05-02T00:04:55.924Z,51.70
2019-05-02T00:05:54.847Z,50.60
2019-05-02T00:06:54.800Z,52.00
2019-05-02T00:07:58.522Z,52.50
2019-05-02T00:08:54.789Z,53.80
2019-05-02T00:09:54.775Z,54.10
2019-05-02T00:10:54.817Z,54.90
2019-05-02T00:11:58.854Z,53.60
2019-05-02T00:12:54.738Z,55.70
2019-05-02T00:13:54.723Z,54.10
2019-05-02T00:14:56.494Z,54.60
2019-05-02T00:15:55.733Z,55.60
2019-05-02T00:16:54.695Z,54.60
2019-05-02T00:17:56.800Z,55.10
2019-05-02T00:18:55.679Z,55.10
2019-05-02T00:19:54.675Z,54.30
2019-05-02T00:20:57.034Z,55.20
2019-05-02T00:21:55.636Z,53.90
2019-05-02T00:22:54.651Z,57.30
2019-05-02T00:23:59.083Z,54.70
2019-05-02T00:24:55.615Z,53.90
2019-05-02T00:25:54.637Z,53.80
2019-05-02T00:26:56.121Z,56.50
2019-05-02T00:27:55.578Z,53.70
2019-05-02T00:28:54.576Z,54.10
2019-05-02T00:29:58.682Z,54.10
2019-05-02T00:30:55.569Z,54.20
2019-05-02T00:31:54.538Z,53.20
2019-05-02T00:32:58.257Z,53.80
2019-05-02T00:33:55.525Z,54.30
2019-05-02T00:34:54.503Z,52.60
2019-05-02T00:35:54.527Z,52.70
2019-05-02T00:36:54.484Z,54.20
2019-05-02T00:37:57.394Z,53.60
2019-05-02T00:38:55.454Z,52.80
2019-05-02T00:39:54.452Z,53.60
2019-05-02T00:40:57.416Z,53.60
2019-05-02T00:41:55.433Z,53.80
2019-05-02T00:42:58.275Z,55.20
2019-05-02T00:43:55.413Z,55.00
2019-05-02T00:44:54.404Z,54.40
2019-05-02T00:45:55.094Z,56.00
2019-05-02T00:46:55.390Z,54.70
2019-05-02T00:47:54.365Z,56.50
2019-05-02T00:48:59.834Z,55.50
2019-05-02T00:49:55.355Z,57.40
2019-05-02T00:50:54.365Z,57.00
2019-05-02T00:51:56.568Z,55.20
2019-05-02T00:52:55.315Z,55.80
2019-05-02T00:53:54.303Z,56.00
2019-05-02T00:54:54.934Z,57.50
2019-05-02T00:55:54.335Z,57.10
2019-05-02T00:56:54.280Z,55.80
2019-05-02T00:57:55.651Z,58.20
2019-05-02T00:58:54.256Z,56.00
2019-05-02T00:59:54.248Z,56.10
2019-05-02T01:00:54.885Z,58.10
2019-05-02T01:01:54.260Z,58.90
2019-05-02T01:02:54.216Z,59.40
2019-05-02T01:03:54.200Z,58.10
2019-05-02T01:04:54.198Z,57.00
2019-05-02T01:05:54.176Z,60.90
2019-05-02T01:06:54.198Z,60.70
2019-05-02T01:07:56.032Z,61.30
2019-05-02T01:08:55.149Z,63.20
2019-05-02T01:09:54.139Z,61.50
2019-05-02T01:10:56.766Z,63.30
2019-05-02T01:11:54.138Z,63.10
2019-05-02T01:12:54.112Z,65.80
2019-05-02T01:13:55.811Z,66.30
2019-05-02T01:14:54.083Z,67.00
2019-05-02T01:15:54.071Z,66.30
2019-05-02T01:16:54.785Z,64.50
2019-05-02T01:17:54.051Z,63.70
2019-05-02T01:18:54.056Z,63.50
2019-05-02T01:19:54.037Z,63.90
2019-05-02T01:20:58.139Z,74.40
2019-05-02T01:21:55.041Z,75.20
2019-05-02T01:22:54.003Z,76.50
2019-05-02T01:23:53.984Z,79.10
2019-05-02T01:24:53.995Z,78.40
2019-05-02T01:25:54.577Z,76.20
2019-05-02T01:26:53.989Z,79.70
2019-05-02T01:27:53.947Z,78.60
2019-05-02T01:28:55.547Z,80.70
2019-05-02T01:29:53.926Z,78.00
2019-05-02T01:30:53.916Z,82.60
2019-05-02T01:31:54.691Z,83.90
2019-05-02T01:32:53.891Z,81.50
2019-05-02T01:33:53.880Z,80.40
2019-05-02T01:34:54.314Z,85.80
2019-05-02T01:35:53.865Z,86.30
2019-05-02T01:36:53.883Z,85.80
2019-05-02T01:37:54.930Z,85.50
2019-05-02T01:38:53.828Z,85.20
2019-05-02T01:39:53.822Z,82.90
2019-05-02T01:40:54.761Z,84.20
2019-05-02T01:41:53.834Z,82.70
2019-05-02T01:42:53.785Z,85.10
2019-05-02T01:43:54.869Z,82.90
2019-05-02T01:44:54.757Z,84.20
2019-05-02T01:45:53.757Z,86.90
2019-05-02T01:46:53.974Z,85.40
2019-05-02T01:47:53.732Z,86.00
2019-05-02T01:48:53.725Z,85.30
2019-05-02T01:49:57.352Z,85.00
2019-05-02T01:50:54.703Z,84.20
2019-05-02T01:51:53.732Z,81.70
2019-05-02T01:52:58.404Z,85.30
2019-05-02T01:53:54.670Z,86.80
2019-05-02T01:54:53.667Z,84.70
2019-05-02T01:55:57.621Z,86.70
2019-05-02T01:56:54.698Z,86.10
2019-05-02T01:57:53.626Z,84.30
2019-05-02T01:58:57.823Z,85.20
2019-05-02T01:59:54.635Z,84.00
2019-05-02T02:00:53.599Z,83.80
2019-05-02T02:01:57.970Z,84.90
2019-05-02T02:02:54.593Z,83.70
2019-05-02T02:03:53.565Z,82.10
2019-05-02T02:04:56.892Z,83.00
2019-05-02T02:05:53.549Z,83.00
2019-05-02T02:06:53.543Z,82.20
2019-05-02T02:07:55.459Z,81.60
2019-05-02T02:08:53.508Z,81.10
2019-05-02T02:09:53.497Z,81.20
2019-05-02T02:10:56.603Z,83.40
2019-05-02T02:11:53.474Z,84.40
2019-05-02T02:13:03.344Z,82.80
2019-05-02T02:13:54.455Z,85.10
2019-05-02T02:14:55.440Z,82.90
2019-05-02T02:15:53.433Z,82.10
2019-05-02T02:16:53.437Z,80.70
2019-05-02T02:17:53.436Z,79.00
2019-05-02T02:18:53.398Z,76.40
2019-05-02T02:19:53.398Z,76.60
2019-05-02T02:20:53.383Z,76.70
2019-05-02T02:21:57.416Z,75.10
2019-05-02T02:22:54.390Z,75.20
2019-05-02T02:23:53.392Z,75.40
2019-05-02T02:24:55.886Z,74.10
2019-05-02T02:25:54.332Z,74.10
2019-05-02T02:26:53.332Z,72.10
2019-05-02T02:27:54.902Z,73.60
2019-05-02T02:28:54.295Z,71.80
2019-05-02T02:29:53.327Z,72.50
2019-05-02T02:30:57.967Z,70.40
2019-05-02T02:31:54.264Z,68.40
2019-05-02T02:32:53.288Z,72.70
2019-05-02T02:33:53.255Z,71.50
2019-05-02T02:34:53.250Z,67.60
2019-05-02T02:35:53.244Z,68.00
2019-05-02T02:36:53.219Z,70.10
2019-05-02T02:37:55.668Z,66.70
2019-05-02T02:38:53.231Z,65.10
2019-05-02T02:39:54.186Z,71.70
2019-05-02T02:40:53.178Z,68.10
2019-05-02T02:41:54.245Z,69.60
2019-05-02T02:42:53.193Z,67.60
2019-05-02T02:43:54.816Z,68.90
2019-05-02T02:44:54.150Z,70.20
2019-05-02T02:45:57.596Z,66.10
2019-05-02T02:46:54.126Z,64.20
2019-05-02T02:48:00.048Z,65.00
2019-05-02T02:48:54.099Z,65.20
2019-05-02T02:49:56.132Z,65.60
2019-05-02T02:50:54.084Z,64.50
2019-05-02T02:51:57.913Z,63.60
2019-05-02T02:52:54.080Z,62.10
2019-05-02T02:54:02.652Z,61.30
2019-05-02T02:54:54.028Z,61.60
2019-05-02T02:56:01.148Z,62.70
2019-05-02T02:56:54.008Z,60.30
2019-05-02T02:57:58.417Z,60.10
2019-05-02T02:58:54.023Z,59.70
2019-05-02T02:59:52.987Z,61.30
2019-05-02T03:00:52.968Z,60.30
2019-05-02T03:01:52.947Z,59.70
2019-05-02T03:02:52.948Z,59.30
2019-05-02T03:03:52.959Z,56.20
2019-05-02T03:04:52.928Z,58.80
2019-05-02T03:05:58.738Z,62.00
2019-05-02T03:06:53.899Z,56.80
2019-05-02T03:07:52.890Z,54.70
2019-05-02T03:08:52.907Z,56.40
2019-05-02T03:09:52.871Z,57.50
2019-05-02T03:10:52.854Z,56.60
2019-05-02T03:11:56.255Z,53.80
2019-05-02T03:12:53.837Z,53.10
2019-05-02T03:13:54.181Z,56.80
2019-05-02T03:14:53.814Z,55.00
2019-05-02T03:15:52.882Z,57.00
2019-05-02T03:16:52.795Z,57.30
2019-05-02T03:17:52.805Z,58.10
2019-05-02T03:18:52.857Z,54.10
2019-05-02T03:19:54.289Z,57.30
2019-05-02T03:20:53.745Z,60.80
2019-05-02T03:21:54.556Z,54.80
2019-05-02T03:22:53.734Z,64.40
2019-05-02T03:24:01.640Z,57.10
2019-05-02T03:24:53.703Z,59.50
2019-05-02T03:25:52.722Z,56.20
2019-05-02T03:26:55.139Z,58.10
2019-05-02T03:27:52.676Z,57.30
2019-05-02T03:28:58.472Z,56.90
2019-05-02T03:29:53.654Z,59.70
2019-05-02T03:30:52.645Z,59.80
2019-05-02T03:32:11.616Z,58.30
2019-05-02T03:33:06.702Z,60.50
2019-05-02T03:33:59.666Z,60.10
2019-05-02T03:34:54.337Z,58.50
2019-05-02T03:35:52.593Z,57.60
2019-05-02T03:36:52.582Z,60.20
2019-05-02T03:37:53.173Z,61.60
2019-05-02T03:38:52.591Z,58.60
2019-05-02T03:39:57.402Z,57.10
2019-05-02T03:40:53.533Z,60.50
2019-05-02T03:41:55.458Z,61.20
2019-05-02T03:42:53.517Z,57.40
2019-05-02T03:44:09.817Z,61.10
2019-05-02T03:44:56.194Z,61.00
2019-05-02T03:45:53.503Z,62.50
2019-05-02T03:46:54.517Z,62.60
2019-05-02T03:47:53.494Z,66.80
2019-05-02T03:48:52.454Z,60.90
2019-05-02T03:49:52.624Z,61.00
2019-05-02T03:50:52.435Z,60.70
2019-05-02T03:51:55.867Z,60.30
2019-05-02T03:52:53.472Z,58.60
2019-05-02T03:53:52.400Z,60.00
2019-05-02T03:54:52.806Z,58.50
2019-05-02T03:55:52.397Z,62.10
2019-05-02T03:56:53.428Z,64.70
2019-05-02T03:57:52.359Z,58.50
2019-05-02T03:58:56.000Z,62.80
2019-05-02T03:59:53.368Z,62.50
2019-05-02T04:01:00.801Z,64.00
2019-05-02T04:01:53.314Z,62.50
2019-05-02T04:02:58.911Z,62.30
2019-05-02T04:03:53.309Z,59.70
2019-05-02T04:04:54.098Z,60.10
2019-05-02T04:05:53.271Z,64.70
2019-05-02T04:06:54.983Z,59.40
2019-05-02T04:07:53.253Z,58.80
2019-05-02T04:08:58.856Z,59.60
2019-05-02T04:09:53.264Z,63.90
2019-05-02T04:10:58.967Z,61.20
2019-05-02T04:11:53.218Z,60.10
2019-05-02T04:12:53.014Z,62.40
2019-05-02T04:13:53.188Z,64.90
2019-05-02T04:14:55.319Z,63.20
2019-05-02T04:15:52.173Z,62.60
2019-05-02T04:16:55.246Z,62.00
2019-05-02T04:17:53.151Z,61.10
2019-05-02T04:18:55.677Z,60.60
2019-05-02T04:19:53.151Z,60.70
2019-05-02T04:20:52.168Z,61.30
2019-05-02T04:21:54.880Z,66.10
2019-05-02T04:22:52.103Z,65.20
2019-05-02T04:23:52.087Z,61.50
2019-05-02T04:24:56.785Z,62.90
2019-05-02T04:25:53.060Z,66.30
2019-05-02T04:26:55.888Z,63.00
2019-05-02T04:27:52.050Z,65.20
2019-05-02T04:28:53.679Z,66.60
2019-05-02T04:29:52.056Z,65.90
2019-05-02T04:30:53.959Z,65.00
2019-05-02T04:31:51.999Z,60.20
2019-05-02T04:32:55.936Z,64.00
2019-05-02T04:33:51.994Z,62.20
2019-05-02T04:34:55.149Z,61.30
2019-05-02T04:35:52.963Z,60.70
2019-05-02T04:37:00.255Z,60.10
2019-05-02T04:37:52.941Z,61.90
2019-05-02T04:38:52.740Z,59.80
2019-05-02T04:39:53.761Z,59.20
2019-05-02T04:40:52.931Z,65.00
2019-05-02T04:41:51.896Z,56.80
2019-05-02T04:43:02.039Z,55.70
2019-05-02T04:43:57.594Z,55.20
2019-05-02T04:45:11.618Z,57.60
2019-05-02T04:45:57.426Z,61.90
2019-05-02T04:46:59.816Z,55.20
2019-05-02T04:47:58.458Z,57.80
2019-05-02T04:48:53.301Z,56.20
2019-05-02T04:49:52.208Z,57.90
2019-05-02T04:50:52.163Z,57.70
2019-05-02T04:52:01.494Z,61.10
2019-05-02T04:52:54.117Z,57.30
2019-05-02T04:53:51.788Z,57.20
2019-05-02T04:54:51.786Z,56.60
2019-05-02T04:56:01.948Z,55.90
2019-05-02T04:56:55.314Z,57.60
2019-05-02T04:57:51.727Z,57.60
2019-05-02T04:58:51.732Z,55.60
2019-05-02T05:00:02.560Z,54.70
2019-05-02T05:00:58.009Z,55.70
2019-05-02T05:01:57.176Z,58.80
2019-05-02T05:02:53.238Z,56.40
2019-05-02T05:03:58.672Z,54.30
2019-05-02T05:04:52.664Z,54.50
2019-05-02T05:05:51.683Z,53.80
2019-05-02T05:06:56.076Z,57.50
2019-05-02T05:07:52.620Z,54.90
2019-05-02T05:08:51.618Z,53.20
2019-05-02T05:09:57.878Z,52.60
2019-05-02T05:10:52.639Z,56.50
2019-05-02T05:11:53.879Z,52.90
2019-05-02T05:12:52.562Z,52.40
2019-05-02T05:13:52.457Z,53.00
2019-05-02T05:14:52.625Z,53.10
2019-05-02T05:15:52.082Z,51.10
2019-05-02T05:16:55.505Z,53.60
2019-05-02T05:17:52.586Z,50.80
2019-05-02T05:18:53.206Z,50.70
2019-05-02T05:19:51.495Z,53.60
2019-05-02T05:20:52.909Z,51.20
2019-05-02T05:21:51.464Z,51.70
2019-05-02T05:22:51.464Z,51.70
2019-05-02T05:23:51.763Z,51.60
2019-05-02T05:24:51.438Z,50.60
2019-05-02T05:25:55.751Z,47.10
2019-05-02T05:26:52.456Z,49.60
2019-05-02T05:28:05.865Z,48.00
2019-05-02T05:28:51.376Z,49.80
2019-05-02T05:29:53.583Z,48.60
2019-05-02T05:30:54.405Z,48.20
2019-05-02T05:31:55.032Z,46.90
2019-05-02T05:32:52.342Z,46.60
2019-05-02T05:33:51.326Z,45.50
2019-05-02T05:34:51.315Z,45.80
2019-05-02T05:35:52.650Z,47.50
2019-05-02T05:36:51.326Z,48.30
2019-05-02T05:37:52.893Z,49.00
2019-05-02T05:38:51.271Z,47.20
2019-05-02T05:39:52.712Z,47.20
2019-05-02T05:40:51.248Z,49.20
2019-05-02T05:41:52.401Z,48.20
2019-05-02T05:42:51.222Z,47.30
2019-05-02T05:43:53.606Z,47.80
2019-05-02T05:44:51.203Z,46.90
2019-05-02T05:45:56.311Z,48.30
2019-05-02T05:46:52.212Z,46.30
2019-05-02T05:47:56.525Z,47.70
2019-05-02T05:48:52.212Z,47.80
2019-05-02T05:49:52.144Z,46.60
2019-05-02T05:50:52.144Z,46.80
2019-05-02T05:51:54.272Z,48.60
2019-05-02T05:52:52.173Z,47.60
2019-05-02T05:53:52.309Z,47.10
2019-05-02T05:54:52.116Z,47.00
2019-05-02T05:55:53.565Z,49.10
2019-05-02T05:56:52.104Z,48.50
2019-05-02T05:57:59.691Z,47.60
2019-05-02T05:58:52.628Z,46.20
2019-05-02T05:59:51.065Z,48.30
2019-05-02T06:00:55.414Z,47.30
2019-05-02T06:01:52.046Z,49.20
2019-05-02T06:02:56.258Z,49.30
2019-05-02T06:03:51.998Z,49.70
2019-05-02T06:04:55.194Z,48.80
2019-05-02T06:05:51.983Z,48.60
2019-05-02T06:06:54.127Z,49.00
2019-05-02T06:07:51.962Z,47.10
2019-05-02T06:08:54.246Z,49.10
2019-05-02T06:09:50.938Z,49.20
2019-05-02T06:10:50.936Z,49.10
2019-05-02T06:11:55.491Z,48.30
2019-05-02T06:12:50.906Z,48.60
2019-05-02T06:13:50.895Z,48.70
2019-05-02T06:14:50.895Z,47.50
2019-05-02T06:16:01.574Z,43.90
2019-05-02T06:16:53.173Z,49.10
2019-05-02T06:17:50.858Z,46.40
2019-05-02T06:18:50.845Z,47.10
2019-05-02T06:19:53.695Z,46.50
2019-05-02T06:20:50.824Z,47.50
2019-05-02T06:21:50.837Z,48.50
2019-05-02T06:22:54.908Z,48.10
2019-05-02T06:23:51.796Z,47.50
2019-05-02T06:24:52.103Z,46.90
2019-05-02T06:25:50.772Z,49.10
2019-05-02T06:26:51.818Z,48.00
2019-05-02T06:27:50.746Z,47.90
2019-05-02T06:28:50.746Z,47.80
2019-05-02T06:29:51.095Z,48.80
2019-05-02T06:30:51.716Z,49.50
2019-05-02T06:31:50.729Z,49.30
2019-05-02T06:32:54.938Z,46.70
2019-05-02T06:33:51.678Z,45.90
2019-05-02T06:34:50.675Z,45.10
2019-05-02T06:35:51.847Z,43.90
2019-05-02T06:36:51.686Z,43.60
2019-05-02T06:37:51.977Z,44.40
2019-05-02T06:38:52.337Z,45.90
2019-05-02T06:39:51.621Z,45.00
2019-05-02T06:40:50.610Z,45.50
2019-05-02T06:41:52.045Z,45.40
2019-05-02T06:42:51.615Z,45.10
2019-05-02T06:43:50.588Z,46.20
2019-05-02T06:44:54.876Z,48.70
2019-05-02T06:45:51.563Z,46.00
2019-05-02T06:46:50.549Z,46.50
2019-05-02T06:47:50.562Z,46.60
2019-05-02T06:48:52.219Z,47.10
2019-05-02T06:49:50.515Z,47.00
2019-05-02T06:50:50.507Z,48.40
2019-05-02T06:51:50.966Z,49.80
2019-05-02T06:52:51.510Z,48.70
2019-05-02T06:53:50.471Z,46.90
2019-05-02T06:54:54.080Z,48.40
2019-05-02T06:55:51.450Z,46.80
2019-05-02T06:56:50.458Z,46.30
2019-05-02T06:57:51.782Z,45.60
2019-05-02T06:58:50.415Z,46.60
2019-05-02T06:59:54.673Z,47.00
2019-05-02T07:00:58.191Z,48.60
2019-05-02T07:01:52.392Z,47.60
2019-05-02T07:02:51.398Z,47.00
2019-05-02T07:03:50.364Z,45.30
2019-05-02T07:04:54.753Z,46.00
2019-05-02T07:05:50.347Z,47.80
2019-05-02T07:06:58.547Z,45.80
2019-05-02T07:07:51.445Z,45.30
2019-05-02T07:08:50.434Z,46.60
2019-05-02T07:09:50.346Z,47.20
2019-05-02T07:10:50.319Z,45.00
2019-05-02T07:11:56.908Z,45.40
2019-05-02T07:13:02.239Z,47.30
2019-05-02T07:13:51.332Z,45.80
2019-05-02T07:14:50.247Z,46.30
2019-05-02T07:15:50.238Z,48.20
2019-05-02T07:16:54.495Z,48.40
2019-05-02T07:17:51.245Z,48.20
2019-05-02T07:18:50.205Z,48.30
2019-05-02T07:19:50.193Z,48.30
2019-05-02T07:20:50.184Z,48.00
2019-05-02T07:21:53.053Z,46.70
2019-05-02T07:22:51.186Z,47.50
2019-05-02T07:23:53.673Z,46.20
2019-05-02T07:24:50.145Z,47.00
2019-05-02T07:25:50.128Z,46.10
2019-05-02T07:26:52.069Z,47.80
2019-05-02T07:27:51.133Z,47.80
2019-05-02T07:28:50.095Z,46.80
2019-05-02T07:29:52.209Z,46.50
2019-05-02T07:30:51.078Z,48.30
2019-05-02T07:31:50.080Z,48.40
2019-05-02T07:32:50.083Z,46.00
2019-05-02T07:33:50.047Z,46.20
2019-05-02T07:34:50.047Z,45.40
2019-05-02T07:35:50.025Z,46.20
2019-05-02T07:36:50.017Z,45.90
2019-05-02T07:37:50.128Z,47.40
2019-05-02T07:38:49.995Z,46.50
2019-05-02T07:39:49.990Z,46.50
2019-05-02T07:40:53.131Z,46.90
2019-05-02T07:41:49.963Z,45.30
2019-05-02T07:42:49.954Z,45.70
2019-05-02T07:43:52.187Z,46.70
2019-05-02T07:44:50.930Z,45.90
2019-05-02T07:45:49.924Z,46.20
2019-05-02T07:46:51.927Z,44.30
2019-05-02T07:47:49.901Z,46.20
2019-05-02T07:48:54.436Z,45.00
2019-05-02T07:49:49.882Z,44.70
2019-05-02T07:50:50.318Z,44.40
2019-05-02T07:51:52.390Z,44.50
2019-05-02T07:52:50.851Z,44.70
2019-05-02T07:53:49.895Z,45.70
2019-05-02T07:54:49.825Z,45.50
2019-05-02T07:55:49.813Z,44.80
2019-05-02T07:56:53.437Z,45.20
2019-05-02T07:57:49.789Z,50.40
2019-05-02T07:58:49.814Z,44.50
2019-05-02T07:59:50.059Z,44.80
2019-05-02T08:00:49.763Z,44.50
2019-05-02T08:01:50.908Z,44.90
2019-05-02T08:02:49.739Z,43.60
2019-05-02T08:03:49.751Z,45.70
2019-05-02T08:04:49.718Z,42.90
2019-05-02T08:05:49.703Z,43.20
2019-05-02T08:06:49.693Z,43.90
2019-05-02T08:07:53.487Z,45.50
2019-05-02T08:08:50.696Z,43.50
2019-05-02T08:09:49.704Z,42.50
2019-05-02T08:10:53.843Z,45.00
2019-05-02T08:11:50.635Z,43.90
2019-05-02T08:12:49.629Z,43.90
2019-05-02T08:13:55.101Z,43.50
2019-05-02T08:14:50.604Z,45.30
2019-05-02T08:15:50.821Z,44.40
2019-05-02T08:16:49.583Z,43.30
2019-05-02T08:17:53.738Z,43.10
2019-05-02T08:18:50.598Z,43.30
2019-05-02T08:19:49.553Z,45.80
2019-05-02T08:20:51.030Z,43.80
2019-05-02T08:21:50.535Z,43.00
2019-05-02T08:22:50.413Z,42.60
2019-05-02T08:23:49.543Z,43.20
2019-05-02T08:24:49.504Z,44.90
2019-05-02T08:25:49.486Z,42.90
2019-05-02T08:26:53.345Z,44.70
2019-05-02T08:27:50.468Z,45.30
2019-05-02T08:28:51.961Z,42.70
2019-05-02T08:29:49.443Z,45.50
2019-05-02T08:30:49.435Z,42.70
2019-05-02T08:31:49.425Z,42.60
2019-05-02T08:32:49.413Z,44.00
2019-05-02T08:33:49.430Z,43.50
2019-05-02T08:34:51.881Z,43.70
2019-05-02T08:35:49.381Z,43.20
2019-05-02T08:36:49.372Z,42.00
2019-05-02T08:37:49.390Z,42.90
2019-05-02T08:38:53.692Z,42.80
2019-05-02T08:39:50.338Z,42.30
2019-05-02T08:40:49.791Z,43.00
2019-05-02T08:41:51.235Z,42.40
2019-05-02T08:42:50.334Z,42.90
2019-05-02T08:43:49.294Z,43.10
2019-05-02T08:44:51.160Z,42.90
2019-05-02T08:45:49.290Z,41.20
2019-05-02T08:46:51.519Z,41.40
2019-05-02T08:47:49.288Z,41.00
2019-05-02T08:48:50.838Z,42.40
2019-05-02T08:49:54.358Z,42.80
2019-05-02T08:50:50.219Z,41.30
2019-05-02T08:51:49.222Z,40.30
2019-05-02T08:52:49.230Z,40.30
2019-05-02T08:53:52.146Z,40.20
2019-05-02T08:54:50.177Z,39.70
2019-05-02T08:55:49.167Z,40.20
2019-05-02T08:56:53.279Z,40.10
2019-05-02T08:57:50.176Z,39.90
2019-05-02T08:58:49.928Z,38.60
2019-05-02T08:59:49.137Z,39.70
2019-05-02T09:00:49.128Z,39.70
2019-05-02T09:01:49.801Z,39.70
2019-05-02T09:02:49.126Z,39.90
2019-05-02T09:03:55.525Z,39.10
2019-05-02T09:04:58.377Z,39.50
2019-05-02T09:05:50.076Z,39.40
2019-05-02T09:06:53.141Z,39.60
2019-05-02T09:07:50.090Z,39.80
2019-05-02T09:08:51.510Z,39.70
2019-05-02T09:09:49.019Z,39.70
2019-05-02T09:10:49.014Z,39.50
2019-05-02T09:12:07.124Z,37.90
2019-05-02T09:12:51.931Z,37.10
2019-05-02T09:13:49.003Z,38.00
2019-05-02T09:14:48.976Z,39.40
2019-05-02T09:15:51.276Z,38.20
2019-05-02T09:16:48.955Z,38.00
2019-05-02T09:17:52.687Z,37.90
2019-05-02T09:18:51.868Z,38.00
2019-05-02T09:20:00.384Z,39.00
2019-05-02T09:20:52.712Z,39.60
2019-05-02T09:21:52.163Z,38.50
2019-05-02T09:22:52.106Z,38.40
2019-05-02T09:23:51.759Z,38.80
2019-05-02T09:24:48.868Z,37.80
2019-05-02T09:25:48.850Z,37.90
2019-05-02T09:26:48.850Z,36.20
2019-05-02T09:27:48.832Z,37.10
2019-05-02T09:28:48.846Z,36.20
2019-05-02T09:29:48.814Z,35.30
2019-05-02T09:30:48.801Z,35.60
2019-05-02T09:31:48.794Z,35.10
2019-05-02T09:32:48.780Z,35.40
2019-05-02T09:33:48.802Z,34.70
2019-05-02T09:34:48.774Z,35.60
2019-05-02T09:35:48.747Z,34.90
2019-05-02T09:36:48.746Z,33.90
2019-05-02T09:37:48.733Z,36.60
2019-05-02T09:38:53.153Z,35.40
2019-05-02T09:39:49.732Z,35.20
2019-05-02T09:40:52.531Z,36.60
2019-05-02T09:41:49.686Z,37.60
2019-05-02T09:42:53.568Z,38.10
2019-05-02T09:43:49.664Z,38.80
2019-05-02T09:44:53.371Z,39.40
2019-05-02T09:45:51.847Z,38.00
2019-05-02T09:46:53.085Z,39.70
2019-05-02T09:47:57.253Z,39.10
2019-05-02T09:48:51.841Z,39.10
2019-05-02T09:49:50.381Z,39.80
2019-05-02T09:50:48.623Z,40.20
2019-05-02T09:51:50.334Z,41.90
2019-05-02T09:52:49.575Z,40.80
2019-05-02T09:53:48.563Z,41.10
2019-05-02T09:54:48.552Z,39.30
2019-05-02T09:55:55.019Z,39.80
2019-05-02T09:56:49.532Z,40.60
2019-05-02T09:57:48.619Z,39.00
2019-05-02T09:58:49.361Z,38.00
2019-05-02T09:59:50.504Z,38.60
2019-05-02T10:00:49.518Z,40.30
2019-05-02T10:01:48.478Z,40.20
2019-05-02T10:02:48.472Z,38.30
2019-05-02T10:03:48.454Z,39.30
2019-05-02T10:04:48.447Z,38.50
2019-05-02T10:05:48.470Z,38.40
2019-05-02T10:06:48.430Z,40.60
2019-05-02T10:07:48.767Z,39.40
2019-05-02T10:08:48.407Z,39.30
2019-05-02T10:09:48.398Z,39.70
2019-05-02T10:10:48.415Z,38.40
2019-05-02T10:11:48.375Z,39.30
2019-05-02T10:12:48.367Z,40.10
2019-05-02T10:13:48.372Z,40.20
2019-05-02T10:14:48.346Z,40.80
2019-05-02T10:15:48.377Z,40.60
2019-05-02T10:16:48.325Z,40.90
2019-05-02T10:17:48.312Z,41.30
2019-05-02T10:18:48.303Z,43.00
2019-05-02T10:19:49.536Z,40.80
2019-05-02T10:20:48.289Z,41.00
2019-05-02T10:21:52.451Z,40.50
2019-05-02T10:22:49.256Z,41.00
2019-05-02T10:23:53.740Z,39.20
2019-05-02T10:24:49.242Z,40.70
2019-05-02T10:25:48.235Z,41.00
2019-05-02T10:26:48.245Z,38.60
2019-05-02T10:27:48.210Z,40.20
2019-05-02T10:28:50.398Z,41.00
2019-05-02T10:29:48.195Z,40.70
2019-05-02T10:30:52.652Z,40.50
2019-05-02T10:31:49.192Z,39.30
2019-05-02T10:32:55.607Z,39.60
2019-05-02T10:33:49.142Z,38.20
2019-05-02T10:34:55.100Z,39.20
2019-05-02T10:35:49.125Z,38.70
2019-05-02T10:36:54.180Z,38.60
2019-05-02T10:37:49.107Z,40.10
2019-05-02T10:38:49.000Z,39.20
2019-05-02T10:39:49.083Z,38.40
2019-05-02T10:40:53.510Z,38.40
2019-05-02T10:41:49.092Z,37.60
2019-05-02T10:42:48.063Z,36.50
2019-05-02T10:43:51.953Z,36.20
2019-05-02T10:44:49.044Z,38.20
2019-05-02T10:45:52.880Z,37.40
2019-05-02T10:46:49.041Z,35.60
2019-05-02T10:47:48.016Z,38.60
2019-05-02T10:48:47.995Z,38.40
2019-05-02T10:49:48.006Z,37.70
2019-05-02T10:50:48.018Z,38.80
2019-05-02T10:51:49.605Z,37.50
2019-05-02T10:52:47.953Z,37.10
2019-05-02T10:53:52.775Z,37.00
2019-05-02T10:54:48.947Z,38.30
2019-05-02T10:55:47.922Z,38.40
2019-05-02T10:56:47.962Z,36.90
2019-05-02T10:57:47.901Z,38.60
2019-05-02T10:58:47.889Z,36.00
2019-05-02T10:59:47.879Z,37.60
2019-05-02T11:00:47.868Z,37.70
2019-05-02T11:01:47.970Z,37.80
2019-05-02T11:02:47.850Z,38.30
2019-05-02T11:03:47.842Z,37.40
2019-05-02T11:04:47.826Z,37.70
2019-05-02T11:05:47.813Z,35.00
2019-05-02T11:06:47.837Z,36.10
2019-05-02T11:07:47.797Z,36.40
2019-05-02T11:08:47.778Z,36.10
2019-05-02T11:09:47.806Z,36.50
2019-05-02T11:10:47.768Z,37.20
2019-05-02T11:11:47.783Z,38.20
2019-05-02T11:12:47.747Z,35.90
2019-05-02T11:13:47.738Z,35.40
2019-05-02T11:14:47.724Z,34.00
2019-05-02T11:15:47.711Z,33.30
2019-05-02T11:16:47.737Z,35.20
2019-05-02T11:17:47.696Z,36.00
2019-05-02T11:18:47.685Z,36.40
2019-05-02T11:19:47.706Z,33.70
2019-05-02T11:20:47.668Z,33.90
2019-05-02T11:21:56.391Z,34.70
2019-05-02T11:22:48.645Z,35.10
2019-05-02T11:23:47.733Z,34.00
2019-05-02T11:24:47.741Z,34.60
2019-05-02T11:25:47.614Z,34.10
2019-05-02T11:26:47.599Z,33.00
2019-05-02T11:27:47.590Z,33.80
2019-05-02T11:28:47.577Z,35.00
2019-05-02T11:29:47.601Z,35.30
2019-05-02T11:30:47.564Z,34.00
2019-05-02T11:31:47.544Z,33.70
2019-05-02T11:32:47.546Z,33.50
2019-05-02T11:33:47.536Z,32.60
2019-05-02T11:34:47.548Z,35.50
2019-05-02T11:35:48.934Z,35.70
2019-05-02T11:36:47.504Z,35.60
2019-05-02T11:37:47.490Z,36.00
2019-05-02T11:38:54.006Z,36.80
2019-05-02T11:39:52.663Z,36.90
2019-05-02T11:40:48.458Z,38.10
2019-05-02T11:41:47.460Z,36.30
2019-05-02T11:42:47.442Z,36.50
2019-05-02T11:43:47.435Z,36.70
2019-05-02T11:44:47.419Z,36.90
2019-05-02T11:45:47.442Z,37.00
2019-05-02T11:46:47.402Z,37.90
2019-05-02T11:47:47.392Z,38.10
2019-05-02T11:48:57.270Z,38.10
2019-05-02T11:49:52.030Z,33.20
2019-05-02T11:50:48.384Z,36.70
2019-05-02T11:51:52.691Z,35.10
2019-05-02T11:52:48.353Z,32.70
2019-05-02T11:53:47.338Z,33.10
2019-05-02T11:54:48.655Z,35.40
2019-05-02T11:55:47.348Z,34.90
2019-05-02T11:56:49.286Z,33.90
2019-05-02T11:57:47.303Z,34.00
2019-05-02T11:58:48.413Z,34.60
2019-05-02T11:59:47.272Z,34.40
2019-05-02T12:00:49.668Z,33.90
2019-05-02T12:01:59.018Z,34.20
2019-05-02T12:02:49.157Z,34.60
2019-05-02T12:03:47.255Z,35.50
2019-05-02T12:04:51.868Z,34.30
2019-05-02T12:05:48.278Z,35.10
2019-05-02T12:06:50.071Z,35.20
2019-05-02T12:07:48.182Z,35.70
2019-05-02T12:08:49.382Z,36.30
2019-05-02T12:09:52.050Z,34.80
2019-05-02T12:10:48.178Z,36.50
2019-05-02T12:11:47.456Z,35.30
2019-05-02T12:12:47.135Z,34.80
2019-05-02T12:13:51.409Z,36.50
2019-05-02T12:14:48.114Z,37.20
2019-05-02T12:15:47.142Z,36.60
2019-05-02T12:16:47.094Z,33.70
2019-05-02T12:17:47.088Z,35.90
2019-05-02T12:18:47.077Z,35.00
2019-05-02T12:19:47.064Z,34.80
2019-05-02T12:20:47.079Z,35.20
2019-05-02T12:21:47.053Z,35.70
2019-05-02T12:22:47.066Z,34.00
2019-05-02T12:23:47.037Z,33.80
2019-05-02T12:24:47.019Z,36.40
2019-05-02T12:25:47.032Z,37.00
2019-05-02T12:26:46.993Z,35.80
2019-05-02T12:27:46.988Z,34.90
2019-05-02T12:28:46.993Z,35.30
2019-05-02T12:29:50.225Z,35.00
2019-05-02T12:30:47.981Z,33.70
2019-05-02T12:31:47.185Z,35.50
2019-05-02T12:32:46.951Z,34.40
2019-05-02T12:33:46.918Z,35.40
2019-05-02T12:34:46.914Z,35.50
2019-05-02T12:35:46.926Z,35.70
2019-05-02T12:36:46.886Z,34.20
2019-05-02T12:37:47.205Z,33.80
2019-05-02T12:38:46.868Z,32.90
2019-05-02T12:39:46.893Z,34.10
2019-05-02T12:40:46.880Z,32.00
2019-05-02T12:41:47.185Z,33.30
2019-05-02T12:42:46.830Z,34.40
2019-05-02T12:43:46.821Z,33.10
2019-05-02T12:44:46.803Z,31.20
2019-05-02T12:45:46.819Z,31.90
2019-05-02T12:46:46.787Z,32.50
2019-05-02T12:47:46.776Z,32.10
2019-05-02T12:48:46.772Z,32.60
2019-05-02T12:49:46.788Z,35.20
2019-05-02T12:50:46.777Z,32.00
2019-05-02T12:51:46.730Z,31.60
2019-05-02T12:52:46.723Z,30.70